sensor_id;sensor_type;location;lat;lon;timestamp;P1;durP1;ratioP1;P2;durP2;ratioP2
59416;SDS011;45222;52.458;20.914;2022-11-04T00:00:10;20.90;;;13.80;;
59416;SDS011;45222;52.458;20.914;2022-11-04T00:03:34;23.60;;;14.10;;
59416;SDS011;45222;52.458;20.914;2022-11-04T00:06:39;21.40;;;13.20;;
59416;SDS011;45222;52.458;20.914;2022-11-04T00:09:45;19.20;;;12.30;;
59416;SDS011;45222;52.458;20.914;2022-11-04T00:12:52;20.00;;;12.20;;
59416;SDS011;45222;52.458;20.914;2022-11-04T00:16:01;18.40;;;12.50;;
59416;SDS011;45222;52.458;20.914;2022-11-04T00:19:26;20.10;;;13.20;;
59416;SDS011;45222;52.458;20.914;2022-11-04T00:22:52;23.00;;;13.70;;
59416;SDS011;45222;52.458;20.914;2022-11-04T00:26:14;17.80;;;8.80;;
59416;SDS011;45222;52.458;20.914;2022-11-04T00:29:52;21.10;;;12.10;;
59416;SDS011;45222;52.458;20.914;2022-11-04T00:32:58;23.00;;;13.00;;
59416;SDS011;45222;52.458;20.914;2022-11-04T00:36:22;17.50;;;11.40;;
59416;SDS011;45222;52.458;20.914;2022-11-04T00:39:28;19.60;;;11.50;;
59416;SDS011;45222;52.458;20.914;2022-11-04T00:42:33;17.50;;;12.20;;
59416;SDS011;45222;52.458;20.914;2022-11-04T00:45:40;20.70;;;12.60;;
59416;SDS011;45222;52.458;20.914;2022-11-04T00:48:45;21.20;;;12.70;;
59416;SDS011;45222;52.458;20.914;2022-11-04T00:51:51;20.40;;;11.90;;
59416;SDS011;45222;52.458;20.914;2022-11-04T00:54:57;18.40;;;11.00;;
59416;SDS011;45222;52.458;20.914;2022-11-04T00:58:02;16.90;;;10.60;;
59416;SDS011;45222;52.458;20.914;2022-11-04T01:01:08;16.20;;;10.90;;
59416;SDS011;45222;52.458;20.914;2022-11-04T01:04:15;17.10;;;11.30;;
59416;SDS011;45222;52.458;20.914;2022-11-04T01:07:21;19.20;;;11.80;;
59416;SDS011;45222;52.458;20.914;2022-11-04T01:10:26;17.20;;;11.30;;
59416;SDS011;45222;52.458;20.914;2022-11-04T01:13:31;17.10;;;7.80;;
59416;SDS011;45222;52.458;20.914;2022-11-04T01:16:37;17.00;;;10.50;;
59416;SDS011;45222;52.458;20.914;2022-11-04T01:19:43;16.80;;;8.00;;
59416;SDS011;45222;52.458;20.914;2022-11-04T01:22:48;17.00;;;10.70;;
59416;SDS011;45222;52.458;20.914;2022-11-04T01:25:54;18.50;;;10.50;;
59416;SDS011;45222;52.458;20.914;2022-11-04T01:28:59;17.90;;;10.70;;
59416;SDS011;45222;52.458;20.914;2022-11-04T01:32:05;18.20;;;10.80;;
59416;SDS011;45222;52.458;20.914;2022-11-04T01:35:11;16.50;;;10.80;;
59416;SDS011;45222;52.458;20.914;2022-11-04T01:38:16;18.40;;;10.50;;
59416;SDS011;45222;52.458;20.914;2022-11-04T01:41:22;19.90;;;9.90;;
59416;SDS011;45222;52.458;20.914;2022-11-04T01:44:52;18.50;;;10.30;;
59416;SDS011;45222;52.458;20.914;2022-11-04T01:51:06;16.70;;;9.90;;
59416;SDS011;45222;52.458;20.914;2022-11-04T01:54:12;15.80;;;9.40;;
59416;SDS011;45222;52.458;20.914;2022-11-04T01:57:19;15.80;;;9.90;;
59416;SDS011;45222;52.458;20.914;2022-11-04T02:00:30;16.40;;;9.10;;
59416;SDS011;45222;52.458;20.914;2022-11-04T02:03:37;16.40;;;9.50;;
59416;SDS011;45222;52.458;20.914;2022-11-04T02:06:46;15.40;;;8.60;;
59416;SDS011;45222;52.458;20.914;2022-11-04T02:09:52;15.50;;;8.60;;
59416;SDS011;45222;52.458;20.914;2022-11-04T02:12:59;17.00;;;8.60;;
59416;SDS011;45222;52.458;20.914;2022-11-04T02:16:08;14.10;;;8.90;;
59416;SDS011;45222;52.458;20.914;2022-11-04T02:19:27;16.50;;;9.50;;
59416;SDS011;45222;52.458;20.914;2022-11-04T02:23:01;14.20;;;8.40;;
59416;SDS011;45222;52.458;20.914;2022-11-04T02:30:10;14.20;;;8.00;;
59416;SDS011;45222;52.458;20.914;2022-11-04T02:36:31;14.40;;;8.00;;
59416;SDS011;45222;52.458;20.914;2022-11-04T02:39:48;16.60;;;8.10;;
59416;SDS011;45222;52.458;20.914;2022-11-04T02:42:59;14.00;;;8.40;;
59416;SDS011;45222;52.458;20.914;2022-11-04T02:46:08;16.20;;;8.50;;
59416;SDS011;45222;52.458;20.914;2022-11-04T02:49:22;15.30;;;7.80;;
59416;SDS011;45222;52.458;20.914;2022-11-04T02:52:35;13.90;;;7.20;;
59416;SDS011;45222;52.458;20.914;2022-11-04T02:55:46;15.00;;;7.40;;
59416;SDS011;45222;52.458;20.914;2022-11-04T03:03:06;15.20;;;7.80;;
59416;SDS011;45222;52.458;20.914;2022-11-04T03:06:17;14.10;;;8.40;;
59416;SDS011;45222;52.458;20.914;2022-11-04T03:09:26;18.50;;;8.00;;
59416;SDS011;45222;52.458;20.914;2022-11-04T03:12:37;14.10;;;7.70;;
59416;SDS011;45222;52.458;20.914;2022-11-04T03:15:49;15.20;;;8.00;;
59416;SDS011;45222;52.458;20.914;2022-11-04T03:19:01;14.00;;;7.20;;
59416;SDS011;45222;52.458;20.914;2022-11-04T03:22:15;13.00;;;7.00;;
59416;SDS011;45222;52.458;20.914;2022-11-04T03:25:23;14.40;;;7.50;;
59416;SDS011;45222;52.458;20.914;2022-11-04T03:28:34;13.90;;;7.40;;
59416;SDS011;45222;52.458;20.914;2022-11-04T03:31:46;13.40;;;7.90;;
59416;SDS011;45222;52.458;20.914;2022-11-04T03:35:01;13.50;;;7.50;;
59416;SDS011;45222;52.458;20.914;2022-11-04T03:38:07;13.60;;;7.40;;
59416;SDS011;45222;52.458;20.914;2022-11-04T03:41:17;14.20;;;7.00;;
59416;SDS011;45222;52.458;20.914;2022-11-04T03:44:28;12.60;;;6.60;;
59416;SDS011;45222;52.458;20.914;2022-11-04T03:47:34;16.30;;;7.20;;
59416;SDS011;45222;52.458;20.914;2022-11-04T03:50:40;13.60;;;7.20;;
59416;SDS011;45222;52.458;20.914;2022-11-04T03:53:49;13.00;;;8.20;;
59416;SDS011;45222;52.458;20.914;2022-11-04T03:57:16;14.20;;;8.00;;
59416;SDS011;45222;52.458;20.914;2022-11-04T04:00:34;15.00;;;7.40;;
59416;SDS011;45222;52.458;20.914;2022-11-04T04:03:50;15.70;;;7.50;;
59416;SDS011;45222;52.458;20.914;2022-11-04T04:07:03;12.50;;;6.80;;
59416;SDS011;45222;52.458;20.914;2022-11-04T04:10:15;13.40;;;7.00;;
59416;SDS011;45222;52.458;20.914;2022-11-04T04:13:44;12.00;;;7.10;;
59416;SDS011;45222;52.458;20.914;2022-11-04T04:16:57;13.00;;;7.60;;
59416;SDS011;45222;52.458;20.914;2022-11-04T04:20:06;15.50;;;8.60;;
59416;SDS011;45222;52.458;20.914;2022-11-04T04:23:19;14.60;;;7.90;;
59416;SDS011;45222;52.458;20.914;2022-11-04T04:32:18;16.10;;;8.20;;
59416;SDS011;45222;52.458;20.914;2022-11-04T04:35:24;14.40;;;7.40;;
59416;SDS011;45222;52.458;20.914;2022-11-04T04:38:44;12.80;;;7.80;;
59416;SDS011;45222;52.458;20.914;2022-11-04T04:42:06;12.90;;;7.20;;
59416;SDS011;45222;52.458;20.914;2022-11-04T04:45:29;15.80;;;8.20;;
59416;SDS011;45222;52.458;20.914;2022-11-04T04:48:35;15.10;;;8.50;;
59416;SDS011;45222;52.458;20.914;2022-11-04T04:51:38;16.80;;;9.70;;
59416;SDS011;45222;52.458;20.914;2022-11-04T04:54:43;17.60;;;10.30;;
59416;SDS011;45222;52.458;20.914;2022-11-04T04:57:46;18.10;;;9.60;;
59416;SDS011;45222;52.458;20.914;2022-11-04T05:00:49;14.70;;;8.70;;
59416;SDS011;45222;52.458;20.914;2022-11-04T05:03:51;16.70;;;9.00;;
59416;SDS011;45222;52.458;20.914;2022-11-04T05:06:54;14.70;;;8.50;;
59416;SDS011;45222;52.458;20.914;2022-11-04T05:09:57;15.20;;;8.80;;
59416;SDS011;45222;52.458;20.914;2022-11-04T05:12:59;15.70;;;8.80;;
59416;SDS011;45222;52.458;20.914;2022-11-04T05:16:20;15.40;;;8.30;;
59416;SDS011;45222;52.458;20.914;2022-11-04T05:19:23;14.50;;;8.10;;
59416;SDS011;45222;52.458;20.914;2022-11-04T05:22:25;14.50;;;8.30;;
59416;SDS011;45222;52.458;20.914;2022-11-04T05:25:28;14.40;;;8.20;;
59416;SDS011;45222;52.458;20.914;2022-11-04T05:28:31;14.70;;;8.40;;
59416;SDS011;45222;52.458;20.914;2022-11-04T05:31:34;15.00;;;8.30;;
59416;SDS011;45222;52.458;20.914;2022-11-04T05:34:36;14.90;;;8.50;;
59416;SDS011;45222;52.458;20.914;2022-11-04T05:37:39;13.50;;;7.90;;
59416;SDS011;45222;52.458;20.914;2022-11-04T05:40:41;12.70;;;7.40;;
59416;SDS011;45222;52.458;20.914;2022-11-04T05:43:44;12.20;;;7.20;;
59416;SDS011;45222;52.458;20.914;2022-11-04T05:46:47;12.60;;;6.80;;
59416;SDS011;45222;52.458;20.914;2022-11-04T05:49:49;15.70;;;8.00;;
59416;SDS011;45222;52.458;20.914;2022-11-04T05:52:52;15.80;;;8.40;;
59416;SDS011;45222;52.458;20.914;2022-11-04T05:55:56;15.10;;;8.60;;
59416;SDS011;45222;52.458;20.914;2022-11-04T05:58:59;17.00;;;8.60;;
59416;SDS011;45222;52.458;20.914;2022-11-04T06:02:01;14.10;;;7.90;;
59416;SDS011;45222;52.458;20.914;2022-11-04T06:05:06;17.90;;;8.20;;
59416;SDS011;45222;52.458;20.914;2022-11-04T06:08:09;15.60;;;8.40;;
59416;SDS011;45222;52.458;20.914;2022-11-04T06:11:12;14.30;;;8.10;;
59416;SDS011;45222;52.458;20.914;2022-11-04T06:14:15;14.20;;;7.70;;
59416;SDS011;45222;52.458;20.914;2022-11-04T06:17:18;14.40;;;7.90;;
59416;SDS011;45222;52.458;20.914;2022-11-04T06:20:22;12.60;;;7.40;;
59416;SDS011;45222;52.458;20.914;2022-11-04T06:23:24;17.70;;;7.70;;
59416;SDS011;45222;52.458;20.914;2022-11-04T06:26:27;13.00;;;7.10;;
59416;SDS011;45222;52.458;20.914;2022-11-04T06:29:31;13.10;;;7.60;;
59416;SDS011;45222;52.458;20.914;2022-11-04T06:32:34;13.30;;;7.80;;
59416;SDS011;45222;52.458;20.914;2022-11-04T06:35:37;13.00;;;6.90;;
59416;SDS011;45222;52.458;20.914;2022-11-04T06:38:39;12.10;;;7.10;;
59416;SDS011;45222;52.458;20.914;2022-11-04T06:41:43;13.20;;;7.30;;
59416;SDS011;45222;52.458;20.914;2022-11-04T06:44:45;13.70;;;7.50;;
59416;SDS011;45222;52.458;20.914;2022-11-04T06:47:48;17.90;;;8.10;;
59416;SDS011;45222;52.458;20.914;2022-11-04T06:50:51;13.10;;;8.10;;
59416;SDS011;45222;52.458;20.914;2022-11-04T06:53:53;13.50;;;7.50;;
59416;SDS011;45222;52.458;20.914;2022-11-04T06:56:56;14.40;;;7.70;;
59416;SDS011;45222;52.458;20.914;2022-11-04T06:59:59;12.40;;;7.60;;
59416;SDS011;45222;52.458;20.914;2022-11-04T07:03:02;13.70;;;8.30;;
59416;SDS011;45222;52.458;20.914;2022-11-04T07:06:05;14.10;;;8.10;;
59416;SDS011;45222;52.458;20.914;2022-11-04T07:09:10;16.60;;;8.20;;
59416;SDS011;45222;52.458;20.914;2022-11-04T07:12:14;14.20;;;8.20;;
59416;SDS011;45222;52.458;20.914;2022-11-04T07:15:16;16.30;;;7.70;;
59416;SDS011;45222;52.458;20.914;2022-11-04T07:18:19;12.60;;;7.80;;
59416;SDS011;45222;52.458;20.914;2022-11-04T07:21:22;13.60;;;7.50;;
59416;SDS011;45222;52.458;20.914;2022-11-04T07:24:25;12.80;;;8.30;;
59416;SDS011;45222;52.458;20.914;2022-11-04T07:27:27;14.40;;;7.90;;
59416;SDS011;45222;52.458;20.914;2022-11-04T07:30:30;13.60;;;8.00;;
59416;SDS011;45222;52.458;20.914;2022-11-04T07:33:33;13.00;;;7.70;;
59416;SDS011;45222;52.458;20.914;2022-11-04T07:36:35;14.50;;;8.00;;
59416;SDS011;45222;52.458;20.914;2022-11-04T07:39:38;12.50;;;7.80;;
59416;SDS011;45222;52.458;20.914;2022-11-04T07:42:41;13.70;;;8.60;;
59416;SDS011;45222;52.458;20.914;2022-11-04T07:45:43;13.00;;;8.10;;
59416;SDS011;45222;52.458;20.914;2022-11-04T07:48:47;14.00;;;8.40;;
59416;SDS011;45222;52.458;20.914;2022-11-04T07:51:49;13.30;;;7.60;;
59416;SDS011;45222;52.458;20.914;2022-11-04T07:54:52;12.50;;;7.50;;
59416;SDS011;45222;52.458;20.914;2022-11-04T07:57:57;13.70;;;8.70;;
59416;SDS011;45222;52.458;20.914;2022-11-04T08:01:02;13.90;;;8.40;;
59416;SDS011;45222;52.458;20.914;2022-11-04T08:04:07;15.10;;;8.10;;
59416;SDS011;45222;52.458;20.914;2022-11-04T08:07:10;13.20;;;8.60;;
59416;SDS011;45222;52.458;20.914;2022-11-04T08:10:12;15.50;;;9.10;;
59416;SDS011;45222;52.458;20.914;2022-11-04T08:13:15;14.10;;;9.00;;
59416;SDS011;45222;52.458;20.914;2022-11-04T08:16:18;14.70;;;8.50;;
59416;SDS011;45222;52.458;20.914;2022-11-04T08:19:22;14.00;;;8.50;;
59416;SDS011;45222;52.458;20.914;2022-11-04T08:22:25;14.60;;;8.50;;
59416;SDS011;45222;52.458;20.914;2022-11-04T08:25:28;15.60;;;9.10;;
59416;SDS011;45222;52.458;20.914;2022-11-04T08:28:30;14.10;;;8.90;;
59416;SDS011;45222;52.458;20.914;2022-11-04T08:31:33;15.70;;;9.00;;
59416;SDS011;45222;52.458;20.914;2022-11-04T08:34:36;13.40;;;8.20;;
59416;SDS011;45222;52.458;20.914;2022-11-04T08:37:39;13.80;;;8.50;;
59416;SDS011;45222;52.458;20.914;2022-11-04T08:40:41;14.40;;;8.90;;
59416;SDS011;45222;52.458;20.914;2022-11-04T08:43:45;12.80;;;8.70;;
59416;SDS011;45222;52.458;20.914;2022-11-04T08:46:48;13.40;;;8.90;;
59416;SDS011;45222;52.458;20.914;2022-11-04T08:49:51;14.10;;;9.20;;
59416;SDS011;45222;52.458;20.914;2022-11-04T08:52:54;14.20;;;8.50;;
59416;SDS011;45222;52.458;20.914;2022-11-04T08:55:56;13.30;;;8.50;;
59416;SDS011;45222;52.458;20.914;2022-11-04T08:58:59;14.80;;;9.00;;
59416;SDS011;45222;52.458;20.914;2022-11-04T09:02:02;14.80;;;9.10;;
59416;SDS011;45222;52.458;20.914;2022-11-04T09:05:06;14.10;;;9.10;;
59416;SDS011;45222;52.458;20.914;2022-11-04T09:08:09;15.30;;;8.70;;
59416;SDS011;45222;52.458;20.914;2022-11-04T09:11:12;14.60;;;8.80;;
59416;SDS011;45222;52.458;20.914;2022-11-04T09:14:16;15.40;;;8.50;;
59416;SDS011;45222;52.458;20.914;2022-11-04T09:17:19;14.30;;;9.10;;
59416;SDS011;45222;52.458;20.914;2022-11-04T09:20:24;14.00;;;8.80;;
59416;SDS011;45222;52.458;20.914;2022-11-04T09:23:27;15.30;;;9.50;;
59416;SDS011;45222;52.458;20.914;2022-11-04T09:26:31;16.90;;;9.80;;
59416;SDS011;45222;52.458;20.914;2022-11-04T09:29:34;17.10;;;8.80;;
59416;SDS011;45222;52.458;20.914;2022-11-04T09:32:37;13.10;;;8.70;;
59416;SDS011;45222;52.458;20.914;2022-11-04T09:35:40;14.70;;;8.60;;
59416;SDS011;45222;52.458;20.914;2022-11-04T09:38:42;14.20;;;8.50;;
59416;SDS011;45222;52.458;20.914;2022-11-04T09:41:48;13.70;;;8.90;;
59416;SDS011;45222;52.458;20.914;2022-11-04T09:45:01;15.60;;;8.70;;
59416;SDS011;45222;52.458;20.914;2022-11-04T09:48:13;14.50;;;8.60;;
59416;SDS011;45222;52.458;20.914;2022-11-04T09:51:23;15.80;;;8.50;;
59416;SDS011;45222;52.458;20.914;2022-11-04T09:54:28;13.70;;;8.80;;
59416;SDS011;45222;52.458;20.914;2022-11-04T09:57:36;14.90;;;9.20;;
59416;SDS011;45222;52.458;20.914;2022-11-04T10:00:39;12.80;;;8.20;;
59416;SDS011;45222;52.458;20.914;2022-11-04T10:03:51;13.40;;;8.80;;
59416;SDS011;45222;52.458;20.914;2022-11-04T10:07:05;14.20;;;9.50;;
59416;SDS011;45222;52.458;20.914;2022-11-04T10:10:16;15.20;;;8.30;;
59416;SDS011;45222;52.458;20.914;2022-11-04T10:13:30;13.70;;;9.00;;
59416;SDS011;45222;52.458;20.914;2022-11-04T10:16:49;15.40;;;9.50;;
59416;SDS011;45222;52.458;20.914;2022-11-04T10:20:09;16.10;;;8.70;;
59416;SDS011;45222;52.458;20.914;2022-11-04T10:23:25;14.60;;;8.50;;
59416;SDS011;45222;52.458;20.914;2022-11-04T10:26:35;14.90;;;8.70;;
59416;SDS011;45222;52.458;20.914;2022-11-04T10:29:46;15.10;;;9.00;;
59416;SDS011;45222;52.458;20.914;2022-11-04T10:32:54;12.70;;;8.60;;
59416;SDS011;45222;52.458;20.914;2022-11-04T10:36:05;15.00;;;8.50;;
59416;SDS011;45222;52.458;20.914;2022-11-04T10:39:11;15.80;;;8.70;;
59416;SDS011;45222;52.458;20.914;2022-11-04T10:42:23;13.70;;;8.90;;
59416;SDS011;45222;52.458;20.914;2022-11-04T10:45:28;14.90;;;9.10;;
59416;SDS011;45222;52.458;20.914;2022-11-04T10:48:37;14.90;;;9.10;;
59416;SDS011;45222;52.458;20.914;2022-11-04T10:51:44;13.90;;;8.30;;
59416;SDS011;45222;52.458;20.914;2022-11-04T10:54:47;12.50;;;8.30;;
59416;SDS011;45222;52.458;20.914;2022-11-04T10:57:53;14.70;;;8.00;;
59416;SDS011;45222;52.458;20.914;2022-11-04T11:00:57;12.70;;;7.60;;
59416;SDS011;45222;52.458;20.914;2022-11-04T11:04:02;12.50;;;7.60;;
59416;SDS011;45222;52.458;20.914;2022-11-04T11:07:26;13.00;;;8.10;;
59416;SDS011;45222;52.458;20.914;2022-11-04T11:10:37;15.20;;;8.30;;
59416;SDS011;45222;52.458;20.914;2022-11-04T11:13:53;15.00;;;8.90;;
59416;SDS011;45222;52.458;20.914;2022-11-04T11:16:55;14.40;;;8.20;;
59416;SDS011;45222;52.458;20.914;2022-11-04T11:20:19;13.00;;;8.00;;
59416;SDS011;45222;52.458;20.914;2022-11-04T11:23:34;13.80;;;8.00;;
59416;SDS011;45222;52.458;20.914;2022-11-04T11:26:39;15.30;;;7.90;;
59416;SDS011;45222;52.458;20.914;2022-11-04T11:29:48;15.10;;;8.00;;
59416;SDS011;45222;52.458;20.914;2022-11-04T11:32:57;15.30;;;9.20;;
59416;SDS011;45222;52.458;20.914;2022-11-04T11:36:04;13.90;;;8.00;;
59416;SDS011;45222;52.458;20.914;2022-11-04T11:42:17;13.90;;;8.70;;
59416;SDS011;45222;52.458;20.914;2022-11-04T11:45:20;12.70;;;8.40;;
59416;SDS011;45222;52.458;20.914;2022-11-04T11:48:30;13.70;;;8.90;;
59416;SDS011;45222;52.458;20.914;2022-11-04T11:51:39;14.20;;;8.10;;
59416;SDS011;45222;52.458;20.914;2022-11-04T11:54:43;12.00;;;7.90;;
59416;SDS011;45222;52.458;20.914;2022-11-04T11:57:53;12.80;;;8.00;;
59416;SDS011;45222;52.458;20.914;2022-11-04T12:01:03;13.80;;;8.80;;
59416;SDS011;45222;52.458;20.914;2022-11-04T12:04:11;12.90;;;8.10;;
59416;SDS011;45222;52.458;20.914;2022-11-04T12:07:19;14.30;;;7.70;;
59416;SDS011;45222;52.458;20.914;2022-11-04T12:10:33;12.50;;;7.80;;
59416;SDS011;45222;52.458;20.914;2022-11-04T12:13:40;12.80;;;7.90;;
59416;SDS011;45222;52.458;20.914;2022-11-04T12:16:50;14.30;;;8.20;;
59416;SDS011;45222;52.458;20.914;2022-11-04T12:20:12;13.90;;;8.20;;
59416;SDS011;45222;52.458;20.914;2022-11-04T12:23:29;11.70;;;7.60;;
59416;SDS011;45222;52.458;20.914;2022-11-04T12:26:40;11.90;;;7.10;;
59416;SDS011;45222;52.458;20.914;2022-11-04T12:29:58;12.70;;;6.90;;
59416;SDS011;45222;52.458;20.914;2022-11-04T12:33:10;13.40;;;7.10;;
59416;SDS011;45222;52.458;20.914;2022-11-04T12:36:26;12.00;;;7.10;;
59416;SDS011;45222;52.458;20.914;2022-11-04T12:39:55;12.60;;;7.80;;
59416;SDS011;45222;52.458;20.914;2022-11-04T12:43:10;11.90;;;7.30;;
59416;SDS011;45222;52.458;20.914;2022-11-04T12:46:22;11.80;;;7.00;;
59416;SDS011;45222;52.458;20.914;2022-11-04T12:49:40;10.30;;;7.20;;
59416;SDS011;45222;52.458;20.914;2022-11-04T12:53:01;14.10;;;7.50;;
59416;SDS011;45222;52.458;20.914;2022-11-04T12:56:17;12.10;;;7.50;;
59416;SDS011;45222;52.458;20.914;2022-11-04T12:59:32;13.90;;;7.60;;
59416;SDS011;45222;52.458;20.914;2022-11-04T13:02:45;13.20;;;8.00;;
59416;SDS011;45222;52.458;20.914;2022-11-04T13:05:53;12.80;;;7.50;;
59416;SDS011;45222;52.458;20.914;2022-11-04T13:08:59;11.40;;;7.30;;
59416;SDS011;45222;52.458;20.914;2022-11-04T13:12:06;11.40;;;7.10;;
59416;SDS011;45222;52.458;20.914;2022-11-04T13:15:16;12.30;;;7.10;;
59416;SDS011;45222;52.458;20.914;2022-11-04T13:18:22;11.40;;;7.00;;
59416;SDS011;45222;52.458;20.914;2022-11-04T13:21:31;12.80;;;7.20;;
59416;SDS011;45222;52.458;20.914;2022-11-04T13:24:37;14.10;;;7.10;;
59416;SDS011;45222;52.458;20.914;2022-11-04T13:27:47;11.60;;;6.90;;
59416;SDS011;45222;52.458;20.914;2022-11-04T13:30:52;12.10;;;6.90;;
59416;SDS011;45222;52.458;20.914;2022-11-04T13:34:03;14.80;;;6.90;;
59416;SDS011;45222;52.458;20.914;2022-11-04T13:37:17;12.70;;;6.70;;
59416;SDS011;45222;52.458;20.914;2022-11-04T13:40:26;11.70;;;6.70;;
59416;SDS011;45222;52.458;20.914;2022-11-04T13:43:34;11.20;;;6.80;;
59416;SDS011;45222;52.458;20.914;2022-11-04T13:46:39;10.60;;;6.80;;
59416;SDS011;45222;52.458;20.914;2022-11-04T13:49:51;12.00;;;7.00;;
59416;SDS011;45222;52.458;20.914;2022-11-04T13:52:55;14.10;;;7.30;;
59416;SDS011;45222;52.458;20.914;2022-11-04T13:55:58;12.60;;;7.00;;
59416;SDS011;45222;52.458;20.914;2022-11-04T13:59:02;12.10;;;6.70;;
59416;SDS011;45222;52.458;20.914;2022-11-04T14:02:24;12.60;;;6.80;;
59416;SDS011;45222;52.458;20.914;2022-11-04T14:12:53;12.40;;;7.20;;
59416;SDS011;45222;52.458;20.914;2022-11-04T14:22:58;11.90;;;6.70;;
59416;SDS011;45222;52.458;20.914;2022-11-04T14:26:03;14.50;;;6.80;;
59416;SDS011;45222;52.458;20.914;2022-11-04T14:29:13;12.70;;;7.50;;
59416;SDS011;45222;52.458;20.914;2022-11-04T14:32:21;11.80;;;7.30;;
59416;SDS011;45222;52.458;20.914;2022-11-04T14:35:26;13.60;;;7.30;;
59416;SDS011;45222;52.458;20.914;2022-11-04T14:38:31;13.00;;;7.00;;
59416;SDS011;45222;52.458;20.914;2022-11-04T14:41:51;13.50;;;7.50;;
59416;SDS011;45222;52.458;20.914;2022-11-04T14:44:58;13.70;;;7.60;;
59416;SDS011;45222;52.458;20.914;2022-11-04T14:48:11;14.30;;;8.10;;
59416;SDS011;45222;52.458;20.914;2022-11-04T14:51:23;12.80;;;8.40;;
59416;SDS011;45222;52.458;20.914;2022-11-04T14:54:29;15.40;;;8.50;;
59416;SDS011;45222;52.458;20.914;2022-11-04T14:57:38;14.40;;;8.80;;
59416;SDS011;45222;52.458;20.914;2022-11-04T15:00:50;17.20;;;10.60;;
59416;SDS011;45222;52.458;20.914;2022-11-04T15:03:57;16.80;;;9.70;;
59416;SDS011;45222;52.458;20.914;2022-11-04T15:07:19;18.80;;;10.20;;
59416;SDS011;45222;52.458;20.914;2022-11-04T15:10:26;17.00;;;10.00;;
59416;SDS011;45222;52.458;20.914;2022-11-04T15:13:32;16.50;;;9.10;;
59416;SDS011;45222;52.458;20.914;2022-11-04T15:16:35;14.20;;;8.60;;
59416;SDS011;45222;52.458;20.914;2022-11-04T15:19:37;13.40;;;8.50;;
59416;SDS011;45222;52.458;20.914;2022-11-04T15:22:41;16.70;;;8.20;;
59416;SDS011;45222;52.458;20.914;2022-11-04T15:25:45;17.50;;;8.50;;
59416;SDS011;45222;52.458;20.914;2022-11-04T15:28:49;13.30;;;7.80;;
59416;SDS011;45222;52.458;20.914;2022-11-04T15:31:53;14.60;;;8.30;;
59416;SDS011;45222;52.458;20.914;2022-11-04T15:34:56;13.50;;;8.30;;
59416;SDS011;45222;52.458;20.914;2022-11-04T15:38:00;14.00;;;8.80;;
59416;SDS011;45222;52.458;20.914;2022-11-04T15:41:04;13.70;;;8.90;;
59416;SDS011;45222;52.458;20.914;2022-11-04T15:44:26;15.30;;;8.80;;
59416;SDS011;45222;52.458;20.914;2022-11-04T15:47:31;16.40;;;8.90;;
59416;SDS011;45222;52.458;20.914;2022-11-04T15:50:34;13.60;;;8.10;;
59416;SDS011;45222;52.458;20.914;2022-11-04T15:53:38;15.00;;;8.40;;
59416;SDS011;45222;52.458;20.914;2022-11-04T15:56:53;15.50;;;9.00;;
59416;SDS011;45222;52.458;20.914;2022-11-04T15:59:57;16.10;;;9.40;;
59416;SDS011;45222;52.458;20.914;2022-11-04T16:03:02;15.20;;;9.20;;
59416;SDS011;45222;52.458;20.914;2022-11-04T16:06:06;15.60;;;9.50;;
59416;SDS011;45222;52.458;20.914;2022-11-04T16:09:20;14.60;;;10.00;;
59416;SDS011;45222;52.458;20.914;2022-11-04T16:12:27;14.60;;;9.50;;
59416;SDS011;45222;52.458;20.914;2022-11-04T16:15:36;14.60;;;10.00;;
59416;SDS011;45222;52.458;20.914;2022-11-04T16:18:41;15.50;;;9.40;;
59416;SDS011;45222;52.458;20.914;2022-11-04T16:21:53;16.00;;;9.90;;
59416;SDS011;45222;52.458;20.914;2022-11-04T16:25:00;14.50;;;10.40;;
59416;SDS011;45222;52.458;20.914;2022-11-04T16:28:05;14.90;;;9.90;;
59416;SDS011;45222;52.458;20.914;2022-11-04T16:31:23;17.00;;;11.00;;
59416;SDS011;45222;52.458;20.914;2022-11-04T16:34:28;15.40;;;10.00;;
59416;SDS011;45222;52.458;20.914;2022-11-04T16:37:30;18.90;;;10.80;;
59416;SDS011;45222;52.458;20.914;2022-11-04T16:40:33;18.70;;;10.70;;
59416;SDS011;45222;52.458;20.914;2022-11-04T16:43:39;16.90;;;10.70;;
59416;SDS011;45222;52.458;20.914;2022-11-04T16:46:42;16.40;;;11.20;;
59416;SDS011;45222;52.458;20.914;2022-11-04T16:49:45;16.80;;;11.10;;
59416;SDS011;45222;52.458;20.914;2022-11-04T16:52:48;16.40;;;11.00;;
59416;SDS011;45222;52.458;20.914;2022-11-04T16:55:51;18.70;;;11.60;;
59416;SDS011;45222;52.458;20.914;2022-11-04T16:58:56;19.40;;;11.60;;
59416;SDS011;45222;52.458;20.914;2022-11-04T17:01:58;19.00;;;11.70;;
59416;SDS011;45222;52.458;20.914;2022-11-04T17:05:01;16.80;;;12.10;;
59416;SDS011;45222;52.458;20.914;2022-11-04T17:08:04;16.20;;;11.30;;
59416;SDS011;45222;52.458;20.914;2022-11-04T17:11:09;18.70;;;12.30;;
59416;SDS011;45222;52.458;20.914;2022-11-04T17:14:13;17.00;;;11.30;;
59416;SDS011;45222;52.458;20.914;2022-11-04T17:17:17;18.10;;;11.90;;
59416;SDS011;45222;52.458;20.914;2022-11-04T17:20:19;17.90;;;11.40;;
59416;SDS011;45222;52.458;20.914;2022-11-04T17:23:23;13.30;;;11.40;;
59416;SDS011;45222;52.458;20.914;2022-11-04T17:26:25;18.20;;;12.40;;
59416;SDS011;45222;52.458;20.914;2022-11-04T17:29:28;16.80;;;12.20;;
59416;SDS011;45222;52.458;20.914;2022-11-04T17:32:31;17.40;;;12.50;;
59416;SDS011;45222;52.458;20.914;2022-11-04T17:35:34;16.90;;;11.50;;
59416;SDS011;45222;52.458;20.914;2022-11-04T17:38:38;17.00;;;11.90;;
59416;SDS011;45222;52.458;20.914;2022-11-04T17:41:41;17.70;;;11.80;;
59416;SDS011;45222;52.458;20.914;2022-11-04T17:45:02;20.30;;;12.50;;
59416;SDS011;45222;52.458;20.914;2022-11-04T17:48:06;18.20;;;12.10;;
59416;SDS011;45222;52.458;20.914;2022-11-04T17:51:10;20.00;;;12.30;;
59416;SDS011;45222;52.458;20.914;2022-11-04T17:54:13;16.50;;;11.60;;
59416;SDS011;45222;52.458;20.914;2022-11-04T17:57:16;17.80;;;11.50;;
59416;SDS011;45222;52.458;20.914;2022-11-04T18:00:20;16.50;;;11.40;;
59416;SDS011;45222;52.458;20.914;2022-11-04T18:03:26;19.40;;;11.80;;
59416;SDS011;45222;52.458;20.914;2022-11-04T18:06:29;17.80;;;12.10;;
59416;SDS011;45222;52.458;20.914;2022-11-04T18:09:33;19.10;;;12.60;;
59416;SDS011;45222;52.458;20.914;2022-11-04T18:12:36;18.90;;;12.90;;
59416;SDS011;45222;52.458;20.914;2022-11-04T18:15:41;17.40;;;11.30;;
59416;SDS011;45222;52.458;20.914;2022-11-04T18:18:44;18.90;;;11.30;;
59416;SDS011;45222;52.458;20.914;2022-11-04T18:21:47;16.60;;;11.20;;
59416;SDS011;45222;52.458;20.914;2022-11-04T18:24:50;17.30;;;11.90;;
59416;SDS011;45222;52.458;20.914;2022-11-04T18:27:53;21.40;;;12.50;;
59416;SDS011;45222;52.458;20.914;2022-11-04T18:30:55;18.90;;;12.60;;
59416;SDS011;45222;52.458;20.914;2022-11-04T18:33:58;18.10;;;12.40;;
59416;SDS011;45222;52.458;20.914;2022-11-04T18:37:02;18.00;;;11.60;;
59416;SDS011;45222;52.458;20.914;2022-11-04T18:40:06;16.00;;;10.70;;
59416;SDS011;45222;52.458;20.914;2022-11-04T18:43:11;18.80;;;11.40;;
59416;SDS011;45222;52.458;20.914;2022-11-04T18:46:14;18.10;;;11.70;;
59416;SDS011;45222;52.458;20.914;2022-11-04T18:49:17;17.70;;;10.90;;